sensor_id;sensor_type;location;lat;lon;timestamp;pressure;altitude;pressure_sealevel;temperature;humidity
17525;BME280;40431;52.198;9.902;2024-03-06T00:05:16;100996.00;;;4.47;100.00
17525;BME280;40431;52.198;9.902;2024-03-06T00:07:55;101000.56;;;4.44;100.00
17525;BME280;40431;52.198;9.902;2024-03-06T00:11:11;100997.00;;;4.43;100.00
17525;BME280;40431;52.198;9.902;2024-03-06T00:14:00;100994.31;;;4.43;100.00
17525;BME280;40431;52.198;9.902;2024-03-06T00:16:49;100997.91;;;4.42;100.00
17525;BME280;40431;52.198;9.902;2024-03-06T00:26:40;101003.19;;;4.47;100.00
17525;BME280;40431;52.198;9.902;2024-03-06T00:30:38;100995.22;;;4.42;100.00
17525;BME280;40431;52.198;9.902;2024-03-06T00:36:17;101000.81;;;4.34;100.00
17525;BME280;40431;52.198;9.902;2024-03-06T00:39:29;101009.66;;;4.38;100.00
17525;BME280;40431;52.198;9.902;2024-03-06T00:42:37;101001.94;;;4.27;100.00
17525;BME280;40431;52.198;9.902;2024-03-06T00:45:43;101025.03;;;4.33;100.00
17525;BME280;40431;52.198;9.902;2024-03-06T00:48:40;101006.22;;;4.33;100.00
17525;BME280;40431;52.198;9.902;2024-03-06T00:51:25;101013.38;;;4.34;100.00
17525;BME280;40431;52.198;9.902;2024-03-06T00:54:17;101013.47;;;4.31;100.00
17525;BME280;40431;52.198;9.902;2024-03-06T01:00:54;101005.44;;;4.29;100.00
17525;BME280;40431;52.198;9.902;2024-03-06T01:03:45;101024.28;;;4.28;100.00
17525;BME280;40431;52.198;9.902;2024-03-06T01:07:45;101029.72;;;4.25;100.00
17525;BME280;40431;52.198;9.902;2024-03-06T01:09:42;101023.59;;;4.20;100.00
17525;BME280;40431;52.198;9.902;2024-03-06T01:15:43;101038.78;;;4.21;100.00
17525;BME280;40431;52.198;9.902;2024-03-06T01:18:53;101043.06;;;4.28;100.00
17525;BME280;40431;52.198;9.902;2024-03-06T01:21:45;101040.31;;;4.31;100.00
17525;BME280;40431;52.198;9.902;2024-03-06T01:25:09;101040.31;;;4.31;100.00
17525;BME280;40431;52.198;9.902;2024-03-06T01:28:31;101036.88;;;4.26;100.00
17525;BME280;40431;52.198;9.902;2024-03-06T01:31:31;101043.06;;;4.28;100.00
17525;BME280;40431;52.198;9.902;2024-03-06T01:34:39;101039.59;;;4.24;100.00
17525;BME280;40431;52.198;9.902;2024-03-06T01:38:09;101050.16;;;4.30;100.00
17525;BME280;40431;52.198;9.902;2024-03-06T01:40:33;101045.84;;;4.25;100.00
17525;BME280;40431;52.198;9.902;2024-03-06T01:47:19;101043.31;;;4.18;100.00
17525;BME280;40431;52.198;9.902;2024-03-06T01:50:15;101043.19;;;4.23;100.00
17525;BME280;40431;52.198;9.902;2024-03-06T01:53:21;101059.13;;;4.29;100.00
17525;BME280;40431;52.198;9.902;2024-03-06T01:56:31;101054.81;;;4.24;100.00
17525;BME280;40431;52.198;9.902;2024-03-06T01:59:50;101059.16;;;4.28;100.00
17525;BME280;40431;52.198;9.902;2024-03-06T02:03:09;101058.25;;;4.29;100.00
17525;BME280;40431;52.198;9.902;2024-03-06T02:06:07;101054.75;;;4.27;100.00
17525;BME280;40431;52.198;9.902;2024-03-06T02:15:48;101064.44;;;4.32;100.00
17525;BME280;40431;52.198;9.902;2024-03-06T02:19:03;101070.56;;;4.36;100.00
17525;BME280;40431;52.198;9.902;2024-03-06T02:21:52;101062.56;;;4.34;100.00
17525;BME280;40431;52.198;9.902;2024-03-06T02:25:21;101065.47;;;4.27;100.00
17525;BME280;40431;52.198;9.902;2024-03-06T02:29:02;101063.66;;;4.27;100.00
17525;BME280;40431;52.198;9.902;2024-03-06T02:34:50;101078.06;;;4.25;100.00
17525;BME280;40431;52.198;9.902;2024-03-06T02:41:13;101073.50;;;4.28;100.00
17525;BME280;40431;52.198;9.902;2024-03-06T02:46:40;101068.28;;;4.22;100.00
17525;BME280;40431;52.198;9.902;2024-03-06T02:49:06;101074.34;;;4.29;100.00
17525;BME280;40431;52.198;9.902;2024-03-06T02:51:33;101067.16;;;4.31;100.00
17525;BME280;40431;52.198;9.902;2024-03-06T02:54:00;101079.72;;;4.29;100.00
17525;BME280;40431;52.198;9.902;2024-03-06T02:56:27;101072.53;;;4.31;100.00
17525;BME280;40431;52.198;9.902;2024-03-06T02:58:53;101077.91;;;4.31;100.00
17525;BME280;40431;52.198;9.902;2024-03-06T03:01:20;101069.91;;;4.28;100.00
17525;BME280;40431;52.198;9.902;2024-03-06T03:03:48;101075.31;;;4.26;100.00
17525;BME280;40431;52.198;9.902;2024-03-06T03:06:16;101075.31;;;4.26;100.00
17525;BME280;40431;52.198;9.902;2024-03-06T03:08:42;101073.50;;;4.28;100.00
17525;BME280;40431;52.198;9.902;2024-03-06T03:11:10;101078.72;;;4.33;100.00
17525;BME280;40431;52.198;9.902;2024-03-06T03:13:37;101074.41;;;4.27;100.00
17525;BME280;40431;52.198;9.902;2024-03-06T03:16:05;101082.38;;;4.30;100.00
17525;BME280;40431;52.198;9.902;2024-03-06T03:18:32;101083.28;;;4.31;100.00
17525;BME280;40431;52.198;9.902;2024-03-06T03:20:58;101090.31;;;4.35;100.00
17525;BME280;40431;52.198;9.902;2024-03-06T03:23:25;101091.19;;;4.35;100.00
17525;BME280;40431;52.198;9.902;2024-03-06T03:25:51;101087.63;;;4.35;100.00
17525;BME280;40431;52.198;9.902;2024-03-06T03:28:19;101094.88;;;4.31;100.00
17525;BME280;40431;52.198;9.902;2024-03-06T03:30:45;101095.75;;;4.32;100.00
17525;BME280;40431;52.198;9.902;2024-03-06T03:33:12;101096.75;;;4.28;100.00
17525;BME280;40431;52.198;9.902;2024-03-06T03:35:38;101099.28;;;4.34;100.00
17525;BME280;40431;52.198;9.902;2024-03-06T03:38:06;101097.38;;;4.39;100.00
17525;BME280;40431;52.198;9.902;2024-03-06T03:40:32;101103.53;;;4.43;100.00
17525;BME280;40431;52.198;9.902;2024-03-06T03:42:59;101100.88;;;4.41;100.00
17525;BME280;40431;52.198;9.902;2024-03-06T03:45:32;101108.06;;;4.41;100.00
17525;BME280;40431;52.198;9.902;2024-03-06T03:48:00;101098.28;;;4.38;100.00
17525;BME280;40431;52.198;9.902;2024-03-06T03:50:27;101111.59;;;4.43;100.00
17525;BME280;40431;52.198;9.902;2024-03-06T03:52:54;101103.53;;;4.43;100.00
17525;BME280;40431;52.198;9.902;2024-03-06T03:55:20;101106.25;;;4.41;100.00
17525;BME280;40431;52.198;9.902;2024-03-06T03:57:47;101113.47;;;4.39;100.00
17525;BME280;40431;52.198;9.902;2024-03-06T04:00:14;101111.69;;;4.38;100.00
17525;BME280;40431;52.198;9.902;2024-03-06T04:02:42;101125.09;;;4.40;100.00
17525;BME280;40431;52.198;9.902;2024-03-06T04:05:08;101120.63;;;4.39;100.00
17525;BME280;40431;52.198;9.902;2024-03-06T04:07:36;101114.59;;;4.30;100.00
17525;BME280;40431;52.198;9.902;2024-03-06T04:10:03;101119.19;;;4.27;100.00
17525;BME280;40431;52.198;9.902;2024-03-06T04:12:29;101111.94;;;4.29;100.00
17525;BME280;40431;52.198;9.902;2024-03-06T04:14:56;101110.13;;;4.31;100.00
17525;BME280;40431;52.198;9.902;2024-03-06T04:17:23;101113.53;;;4.36;100.00
17525;BME280;40431;52.198;9.902;2024-03-06T04:19:51;101115.31;;;4.37;100.00
17525;BME280;40431;52.198;9.902;2024-03-06T04:22:18;101124.25;;;4.38;100.00
17525;BME280;40431;52.198;9.902;2024-03-06T04:24:45;101124.25;;;4.38;100.00
17525;BME280;40431;52.198;9.902;2024-03-06T04:27:11;101127.72;;;4.41;100.00
17525;BME280;40431;52.198;9.902;2024-03-06T04:29:38;101133.19;;;4.38;100.00
17525;BME280;40431;52.198;9.902;2024-03-06T04:32:04;101134.88;;;4.42;100.00
17525;BME280;40431;52.198;9.902;2024-03-06T04:34:31;101136.72;;;4.40;100.00
17525;BME280;40431;52.198;9.902;2024-03-06T04:36:59;101142.09;;;4.40;100.00
17525;BME280;40431;52.198;9.902;2024-03-06T04:39:25;101143.06;;;4.38;100.00
17525;BME280;40431;52.198;9.902;2024-03-06T04:41:51;101144.88;;;4.35;100.00
17525;BME280;40431;52.198;9.902;2024-03-06T04:44:18;101151.06;;;4.39;100.00
17525;BME280;40431;52.198;9.902;2024-03-06T04:46:44;101151.13;;;4.36;100.00
17525;BME280;40431;52.198;9.902;2024-03-06T04:49:11;101139.56;;;4.34;100.00
17525;BME280;40431;52.198;9.902;2024-03-06T04:51:37;101152.13;;;4.32;100.00
17525;BME280;40431;52.198;9.902;2024-03-06T04:54:05;101148.66;;;4.28;100.00
17525;BME280;40431;52.198;9.902;2024-03-06T04:56:41;101162.09;;;4.28;100.00
17525;BME280;40431;52.198;9.902;2024-03-06T04:59:50;101149.69;;;4.23;100.00
17525;BME280;40431;52.198;9.902;2024-03-06T05:02:35;101163.09;;;4.24;100.00
17525;BME280;40431;52.198;9.902;2024-03-06T05:05:12;101160.41;;;4.23;100.00
17525;BME280;40431;52.198;9.902;2024-03-06T05:08:17;101165.78;;;4.23;100.00
17525;BME280;40431;52.198;9.902;2024-03-06T05:11:25;101171.16;;;4.23;100.00
17525;BME280;40431;52.198;9.902;2024-03-06T05:15:33;101166.69;;;4.23;100.00
17525;BME280;40431;52.198;9.902;2024-03-06T05:17:12;101171.09;;;4.26;100.00
17525;BME280;40431;52.198;9.902;2024-03-06T05:25:59;101167.59;;;4.22;100.00
17525;BME280;40431;52.198;9.902;2024-03-06T05:29:16;101169.38;;;4.23;100.00
17525;BME280;40431;52.198;9.902;2024-03-06T05:35:31;101166.81;;;4.17;100.00
17525;BME280;40431;52.198;9.902;2024-03-06T05:38:31;101169.47;;;4.18;100.00
17525;BME280;40431;52.198;9.902;2024-03-06T05:45:12;101180.16;;;4.22;100.00
17525;BME280;40431;52.198;9.902;2024-03-06T05:48:18;101186.25;;;4.28;100.00
17525;BME280;40431;52.198;9.902;2024-03-06T05:51:10;101210.28;;;4.33;100.00
17525;BME280;40431;52.198;9.902;2024-03-06T05:53:50;101195.13;;;4.30;100.00
17525;BME280;40431;52.198;9.902;2024-03-06T05:59:42;101201.44;;;4.28;100.00
17525;BME280;40431;52.198;9.902;2024-03-06T06:02:21;101214.81;;;4.31;100.00
17525;BME280;40431;52.198;9.902;2024-03-06T06:04:47;101213.88;;;4.32;100.00
17525;BME280;40431;52.198;9.902;2024-03-06T06:07:14;101217.50;;;4.31;100.00
17525;BME280;40431;52.198;9.902;2024-03-06T06:09:41;101219.25;;;4.32;100.00
17525;BME280;40431;52.198;9.902;2024-03-06T06:12:11;101223.66;;;4.34;100.00
17525;BME280;40431;52.198;9.902;2024-03-06T06:14:42;101226.38;;;4.33;100.00
17525;BME280;40431;52.198;9.902;2024-03-06T06:17:10;101219.34;;;4.29;100.00
17525;BME280;40431;52.198;9.902;2024-03-06T06:19:42;101219.47;;;4.23;100.00
17525;BME280;40431;52.198;9.902;2024-03-06T06:22:09;101223.09;;;4.22;100.00
17525;BME280;40431;52.198;9.902;2024-03-06T06:24:37;101230.28;;;4.20;100.00
17525;BME280;40431;52.198;9.902;2024-03-06T06:27:03;101244.50;;;4.25;100.00
17525;BME280;40431;52.198;9.902;2024-03-06T06:29:30;101239.19;;;4.22;100.00
17525;BME280;40431;52.198;9.902;2024-03-06T06:31:56;101244.59;;;4.20;100.00
17525;BME280;40431;52.198;9.902;2024-03-06T06:34:23;101245.56;;;4.17;100.00
17525;BME280;40431;52.198;9.902;2024-03-06T06:36:54;101249.16;;;4.16;100.00
17525;BME280;40431;52.198;9.902;2024-03-06T06:39:20;101259.75;;;4.23;100.00
17525;BME280;40431;52.198;9.902;2024-03-06T06:41:47;101261.59;;;4.21;100.00
17525;BME280;40431;52.198;9.902;2024-03-06T06:44:13;101267.09;;;4.14;100.00
17525;BME280;40431;52.198;9.902;2024-03-06T06:46:40;101266.09;;;4.18;100.00
17525;BME280;40431;52.198;9.902;2024-03-06T06:49:08;101271.41;;;4.22;100.00
17525;BME280;40431;52.198;9.902;2024-03-06T06:51:34;101278.47;;;4.26;100.00
17525;BME280;40431;52.198;9.902;2024-03-06T06:54:03;101278.31;;;4.32;100.00
17525;BME280;40431;52.198;9.902;2024-03-06T06:56:30;101287.16;;;4.37;100.00
17525;BME280;40431;52.198;9.902;2024-03-06T06:58:56;101289.84;;;4.37;100.00
17525;BME280;40431;52.198;9.902;2024-03-06T07:01:22;101290.75;;;4.38;100.00
17525;BME280;40431;52.198;9.902;2024-03-06T07:03:49;101301.34;;;4.42;100.00
17525;BME280;40431;52.198;9.902;2024-03-06T07:06:16;101297.75;;;4.43;100.00
17525;BME280;40431;52.198;9.902;2024-03-06T07:08:42;101313.72;;;4.49;100.00
17525;BME280;40431;52.198;9.902;2024-03-06T07:11:10;101307.41;;;4.50;100.00
17525;BME280;40431;52.198;9.902;2024-03-06T07:13:37;101312.84;;;4.49;100.00
17525;BME280;40431;52.198;9.902;2024-03-06T07:16:04;101309.19;;;4.51;100.00
17525;BME280;40431;52.198;9.902;2024-03-06T07:18:30;101310.09;;;4.52;100.00
17525;BME280;40431;52.198;9.902;2024-03-06T07:20:57;101308.28;;;4.53;100.00
17525;BME280;40431;52.198;9.902;2024-03-06T07:23:23;101309.97;;;4.57;100.00
17525;BME280;40431;52.198;9.902;2024-03-06T07:25:50;101315.25;;;4.60;100.00
17525;BME280;40431;52.198;9.902;2024-03-06T07:28:18;101326.00;;;4.60;100.00
17525;BME280;40431;52.198;9.902;2024-03-06T07:30:46;101325.78;;;4.69;100.00
17525;BME280;40431;52.198;9.902;2024-03-06T07:33:12;101325.72;;;4.72;100.00
17525;BME280;40431;52.198;9.902;2024-03-06T07:35:39;101321.41;;;4.65;100.00
17525;BME280;40431;52.198;9.902;2024-03-06T07:38:05;101315.25;;;4.60;100.00
17525;BME280;40431;52.198;9.902;2024-03-06T07:40:32;101322.41;;;4.61;100.00
17525;BME280;40431;52.198;9.902;2024-03-06T07:42:59;101331.38;;;4.60;100.00
17525;BME280;40431;52.198;9.902;2024-03-06T07:45:27;101330.59;;;4.56;100.00
17525;BME280;40431;52.198;9.902;2024-03-06T07:47:53;101338.56;;;4.59;100.00
17525;BME280;40431;52.198;9.902;2024-03-06T07:50:20;101343.97;;;4.58;100.00
17525;BME280;40431;52.198;9.902;2024-03-06T07:52:47;101342.28;;;4.54;100.00
17525;BME280;40431;52.198;9.902;2024-03-06T07:55:17;101355.72;;;4.54;100.00
17525;BME280;40431;52.198;9.902;2024-03-06T07:57:52;101353.00;;;4.55;100.00
17525;BME280;40431;52.198;9.902;2024-03-06T08:00:30;101360.22;;;4.51;100.00
17525;BME280;40431;52.198;9.902;2024-03-06T08:03:12;101351.28;;;4.51;100.00
17525;BME280;40431;52.198;9.902;2024-03-06T08:05:59;101358.41;;;4.54;100.00
17525;BME280;40431;52.198;9.902;2024-03-06T08:08:58;101363.81;;;4.50;100.00
17525;BME280;40431;52.198;9.902;2024-03-06T08:12:00;101362.00;;;4.53;100.00
17525;BME280;40431;52.198;9.902;2024-03-06T08:14:29;101370.75;;;4.61;100.00
17525;BME280;40431;52.198;9.902;2024-03-06T08:20:18;101375.22;;;4.62;100.00
17525;BME280;40431;52.198;9.902;2024-03-06T08:23:03;101391.19;;;4.68;100.00
17525;BME280;40431;52.198;9.902;2024-03-06T08:25:36;101378.03;;;4.56;100.00
17525;BME280;40431;52.198;9.902;2024-03-06T08:28:05;101388.72;;;4.59;100.00
17525;BME280;40431;52.198;9.902;2024-03-06T08:30:36;101393.94;;;4.65;100.00
17525;BME280;40431;52.198;9.902;2024-03-06T08:33:15;101392.13;;;4.67;100.00
17525;BME280;40431;52.198;9.902;2024-03-06T08:35:53;101402.91;;;4.64;100.00
17525;BME280;40431;52.198;9.902;2024-03-06T08:38:51;101400.06;;;4.72;100.00
17525;BME280;40431;52.198;9.902;2024-03-06T08:41:47;101404.47;;;4.74;100.00
17525;BME280;40431;52.198;9.902;2024-03-06T08:44:39;101407.19;;;4.73;100.00
17525;BME280;40431;52.198;9.902;2024-03-06T08:47:13;101407.16;;;4.74;100.00
17525;BME280;40431;52.198;9.902;2024-03-06T08:49:51;101408.97;;;4.74;100.00
17525;BME280;40431;52.198;9.902;2024-03-06T08:52:22;101414.38;;;4.72;100.00
17525;BME280;40431;52.198;9.902;2024-03-06T08:55:10;101415.91;;;4.82;100.00
17525;BME280;40431;52.198;9.902;2024-03-06T08:57:44;101430.09;;;4.89;100.00
17525;BME280;40431;52.198;9.902;2024-03-06T09:00:22;101426.38;;;4.96;100.00
17525;BME280;40431;52.198;9.902;2024-03-06T09:03:05;101433.47;;;4.99;100.00
17525;BME280;40431;52.198;9.902;2024-03-06T09:05:40;101429.97;;;4.95;100.00
17525;BME280;40431;52.198;9.902;2024-03-06T09:08:45;101434.31;;;5.01;100.00
17525;BME280;40431;52.198;9.902;2024-03-06T09:11:15;101434.31;;;5.01;100.00
17525;BME280;40431;52.198;9.902;2024-03-06T09:13:44;101439.53;;;5.07;100.00
17525;BME280;40431;52.198;9.902;2024-03-06T09:16:20;101431.44;;;5.09;100.00
17525;BME280;40431;52.198;9.902;2024-03-06T09:19:17;101439.47;;;5.10;100.00
17525;BME280;40431;52.198;9.902;2024-03-06T09:22:15;101441.22;;;5.11;100.00
17525;BME280;40431;52.198;9.902;2024-03-06T09:25:15;101449.25;;;5.13;100.00
17525;BME280;40431;52.198;9.902;2024-03-06T09:27:50;101447.38;;;5.16;100.00
17525;BME280;40431;52.198;9.902;2024-03-06T09:30:33;101453.53;;;5.22;100.00
17525;BME280;40431;52.198;9.902;2024-03-06T09:33:16;101453.53;;;5.22;100.00
17525;BME280;40431;52.198;9.902;2024-03-06T09:35:50;101463.22;;;5.29;100.00
17525;BME280;40431;52.198;9.902;2024-03-06T09:38:36;101462.28;;;5.30;100.00
17525;BME280;40431;52.198;9.902;2024-03-06T09:41:25;101467.69;;;5.30;100.00
17525;BME280;40431;52.198;9.902;2024-03-06T09:44:04;101467.53;;;5.36;100.00
17525;BME280;40431;52.198;9.902;2024-03-06T09:47:02;101467.22;;;5.48;100.00
17525;BME280;40431;52.198;9.902;2024-03-06T09:49:57;101470.81;;;5.47;100.00
17525;BME280;40431;52.198;9.902;2024-03-06T09:52:46;101469.91;;;5.48;100.00
17525;BME280;40431;52.198;9.902;2024-03-06T09:55:48;101484.00;;;5.60;100.00
17525;BME280;40431;52.198;9.902;2024-03-06T09:58:30;101476.63;;;5.66;100.00
17525;BME280;40431;52.198;9.902;2024-03-06T10:01:01;101484.56;;;5.71;100.00
17525;BME280;40431;52.198;9.902;2024-03-06T10:03:32;101476.41;;;5.74;100.00
17525;BME280;40431;52.198;9.902;2024-03-06T10:06:01;101482.50;;;5.82;100.00
17525;BME280;40431;52.198;9.902;2024-03-06T10:08:30;101485.94;;;5.88;100.00
17525;BME280;40431;52.198;9.902;2024-03-06T10:11:00;101486.56;;;5.99;100.00
17525;BME280;40431;52.198;9.902;2024-03-06T10:14:13;101491.03;;;6.00;100.00
17525;BME280;40431;52.198;9.902;2024-03-06T10:17:11;101493.53;;;6.06;100.00
17525;BME280;40431;52.198;9.902;2024-03-06T10:19:57;101482.56;;;6.14;100.00
17525;BME280;40431;52.198;9.902;2024-03-06T10:41:15;101505.06;;;6.76;100.00
17525;BME280;40431;52.198;9.902;2024-03-06T10:43:50;101504.91;;;6.80;100.00
17525;BME280;40431;52.198;9.902;2024-03-06T10:46:51;101501.25;;;6.83;100.00
17525;BME280;40431;52.198;9.902;2024-03-06T10:50:05;101502.84;;;6.90;100.00
17525;BME280;40431;52.198;9.902;2024-03-06T10:53:04;101504.28;;;7.02;100.00
17525;BME280;40431;52.198;9.902;2024-03-06T10:55:42;101503.59;;;6.95;100.00
17525;BME280;40431;52.198;9.902;2024-03-06T11:01:40;101491.72;;;7.01;100.00
17525;BME280;40431;52.198;9.902;2024-03-06T11:04:23;101509.16;;;7.17;100.00
17525;BME280;40431;52.198;9.902;2024-03-06T11:07:04;101511.53;;;7.28;100.00
17525;BME280;40431;52.198;9.902;2024-03-06T11:10:16;101501.53;;;7.32;100.00
17525;BME280;40431;52.198;9.902;2024-03-06T11:13:20;101495.16;;;7.34;100.00
17525;BME280;40431;52.198;9.902;2024-03-06T11:16:18;101495.81;;;7.41;100.00
17525;BME280;40431;52.198;9.902;2024-03-06T11:19:22;101499.38;;;7.43;100.00
17525;BME280;40431;52.198;9.902;2024-03-06T11:22:14;101505.63;;;7.44;100.00
17525;BME280;40431;52.198;9.902;2024-03-06T11:24:53;101502.16;;;7.40;100.00
17525;BME280;40431;52.198;9.902;2024-03-06T11:27:28;101498.59;;;7.40;100.00
17525;BME280;40431;52.198;9.902;2024-03-06T11:30:18;101505.75;;;7.41;100.00
17525;BME280;40431;52.198;9.902;2024-03-06T11:33:03;101503.97;;;7.40;100.00
17525;BME280;40431;52.198;9.902;2024-03-06T11:35:36;101509.50;;;7.35;100.00
17525;BME280;40431;52.198;9.902;2024-03-06T11:38:06;101504.84;;;7.40;100.00
17525;BME280;40431;52.198;9.902;2024-03-06T11:40:50;101506.63;;;7.41;100.00
17525;BME280;40431;52.198;9.902;2024-03-06T11:43:46;101510.06;;;7.46;100.00
17525;BME280;40431;52.198;9.902;2024-03-06T11:46:47;101511.78;;;7.49;100.00
17525;BME280;40431;52.198;9.902;2024-03-06T11:49:26;101515.47;;;7.46;100.00
17525;BME280;40431;52.198;9.902;2024-03-06T11:52:09;101500.00;;;7.51;100.00
17525;BME280;40431;52.198;9.902;2024-03-06T11:54:38;101504.56;;;7.49;100.00
17525;BME280;40431;52.198;9.902;2024-03-06T11:57:06;101510.06;;;7.46;100.00
17525;BME280;40431;52.198;9.902;2024-03-06T11:59:43;101511.72;;;7.50;100.00
17525;BME280;40431;52.198;9.902;2024-03-06T12:02:21;101508.81;;;7.57;100.00
17525;BME280;40431;52.198;9.902;2024-03-06T12:05:10;101501.47;;;7.62;100.00
17525;BME280;40431;52.198;9.902;2024-03-06T12:07:49;101514.63;;;7.71;100.00
17525;BME280;40431;52.198;9.902;2024-03-06T12:10:29;101512.56;;;7.79;100.00
17525;BME280;40431;52.198;9.902;2024-03-06T12:13:24;101514.31;;;7.80;100.00
17525;BME280;40431;52.198;9.902;2024-03-06T12:15:52;101503.75;;;7.74;100.00
17525;BME280;40431;52.198;9.902;2024-03-06T12:18:24;101515.22;;;7.81;100.00
17525;BME280;40431;52.198;9.902;2024-03-06T12:21:04;101514.22;;;7.83;100.00
17525;BME280;40431;52.198;9.902;2024-03-06T12:24:02;101515.09;;;7.84;100.00
17525;BME280;40431;52.198;9.902;2024-03-06T12:26:57;101514.09;;;7.86;100.00
17525;BME280;40431;52.198;9.902;2024-03-06T12:32:24;101516.28;;;8.02;100.00
17525;BME280;40431;52.198;9.902;2024-03-06T12:35:00;101512.88;;;7.97;100.00
17525;BME280;40431;52.198;9.902;2024-03-06T12:37:34;101505.88;;;7.90;100.00
17525;BME280;40431;52.198;9.902;2024-03-06T12:40:09;101505.19;;;7.84;100.00
17525;BME280;40431;52.198;9.902;2024-03-06T12:42:52;101507.72;;;7.89;100.00
17525;BME280;40431;52.198;9.902;2024-03-06T12:45:25;101515.69;;;7.94;100.00
17525;BME280;40431;52.198;9.902;2024-03-06T12:47:59;101507.59;;;7.92;100.00
17525;BME280;40431;52.198;9.902;2024-03-06T12:50:37;101510.16;;;7.97;100.00
17525;BME280;40431;52.198;9.902;2024-03-06T12:53:10;101505.47;;;8.02;100.00
17525;BME280;40431;52.198;9.902;2024-03-06T12:56:02;101503.38;;;8.10;100.00
17525;BME280;40431;52.198;9.902;2024-03-06T12:58:47;101498.91;;;8.09;100.00
17525;BME280;40431;52.198;9.902;2024-03-06T13:01:18;101495.28;;;8.10;100.00
17525;BME280;40431;52.198;9.902;2024-03-06T13:03:46;101494.41;;;8.10;100.00
17525;BME280;40431;52.198;9.902;2024-03-06T13:06:18;101494.16;;;8.16;100.00
17525;BME280;40431;52.198;9.902;2024-03-06T13:08:53;101497.66;;;8.19;100.00
17525;BME280;40431;52.198;9.902;2024-03-06T13:11:37;101490.75;;;8.11;99.12
17525;BME280;40431;52.198;9.902;2024-03-06T13:14:25;101498.09;;;8.07;98.64
17525;BME280;40431;52.198;9.902;2024-03-06T13:16:56;101501.47;;;8.14;100.00
17525;BME280;40431;52.198;9.902;2024-03-06T13:19:28;101493.13;;;8.20;100.00
17525;BME280;40431;52.198;9.902;2024-03-06T13:21:57;101489.66;;;8.16;100.00
17525;BME280;40431;52.198;9.902;2024-03-06T13:24:26;101491.13;;;8.25;100.00
17525;BME280;40431;52.198;9.902;2024-03-06T13:27:16;101499.19;;;8.27;99.63
17525;BME280;40431;52.198;9.902;2024-03-06T13:29:52;101498.03;;;8.34;100.00
17525;BME280;40431;52.198;9.902;2024-03-06T13:32:21;101502.00;;;8.24;100.00
17525;BME280;40431;52.198;9.902;2024-03-06T13:34:53;101502.00;;;8.24;99.88
17525;BME280;40431;52.198;9.902;2024-03-06T13:37:25;101495.41;;;8.07;100.00
17525;BME280;40431;52.198;9.902;2024-03-06T13:40:02;101497.69;;;7.93;100.00
17525;BME280;40431;52.198;9.902;2024-03-06T13:42:49;101505.63;;;7.97;100.00
17525;BME280;40431;52.198;9.902;2024-03-06T13:45:21;101511.94;;;7.98;100.00
17525;BME280;40431;52.198;9.902;2024-03-06T13:47:58;101506.72;;;7.92;100.00
17525;BME280;40431;52.198;9.902;2024-03-06T13:50:46;101512.97;;;7.94;100.00
17525;BME280;40431;52.198;9.902;2024-03-06T13:53:17;101511.94;;;7.98;100.00
17525;BME280;40431;52.198;9.902;2024-03-06T13:55:56;101501.84;;;8.03;100.00
17525;BME280;40431;52.198;9.902;2024-03-06T13:58:25;101508.28;;;7.99;100.00
17525;BME280;40431;52.198;9.902;2024-03-06T14:00:57;101501.34;;;7.92;100.00
17525;BME280;40431;52.198;9.902;2024-03-06T14:03:50;101500.66;;;7.85;100.00
17525;BME280;40431;52.198;9.902;2024-03-06T14:06:21;101506.63;;;7.95;100.00
17525;BME280;40431;52.198;9.902;2024-03-06T14:09:03;101498.19;;;8.04;100.00
17525;BME280;40431;52.198;9.902;2024-03-06T14:11:49;101488.75;;;7.91;100.00
17525;BME280;40431;52.198;9.902;2024-03-06T14:14:37;101502.13;;;7.95;100.00
17525;BME280;40431;52.198;9.902;2024-03-06T14:17:14;101502.47;;;8.11;100.00
17525;BME280;40431;52.198;9.902;2024-03-06T14:19:56;101507.28;;;8.27;100.00
17525;BME280;40431;52.198;9.902;2024-03-06T14:22:36;101511.56;;;8.34;100.00
17525;BME280;40431;52.198;9.902;2024-03-06T14:25:09;101513.25;;;8.36;100.00
17525;BME280;40431;52.198;9.902;2024-03-06T14:27:48;101508.25;;;8.26;100.00
17525;BME280;40431;52.198;9.902;2024-03-06T14:30:22;101506.34;;;8.28;100.00
17525;BME280;40431;52.198;9.902;2024-03-06T14:32:56;101515.41;;;8.27;100.00
17525;BME280;40431;52.198;9.902;2024-03-06T14:35:32;101509.91;;;8.30;100.00
17525;BME280;40431;52.198;9.902;2024-03-06T14:38:21;101500.97;;;8.28;100.00
17525;BME280;40431;52.198;9.902;2024-03-06T14:40:54;101502.59;;;8.32;100.00
17525;BME280;40431;52.198;9.902;2024-03-06T14:43:38;101510.50;;;8.38;100.00
17525;BME280;40431;52.198;9.902;2024-03-06T14:46:07;101509.63;;;8.38;100.00
17525;BME280;40431;52.198;9.902;2024-03-06T14:48:41;101503.03;;;8.45;100.00
17525;BME280;40431;52.198;9.902;2024-03-06T14:51:11;101504.09;;;8.41;100.00
17525;BME280;40431;52.198;9.902;2024-03-06T14:53:55;101504.97;;;8.41;100.00
17525;BME280;40431;52.198;9.902;2024-03-06T14:56:36;101506.75;;;8.42;100.00
17525;BME280;40431;52.198;9.902;2024-03-06T14:59:18;101510.50;;;8.38;100.00
17525;BME280;40431;52.198;9.902;2024-03-06T15:01:53;101509.44;;;8.42;100.00
17525;BME280;40431;52.198;9.902;2024-03-06T15:04:25;101512.16;;;8.42;100.00
17525;BME280;40431;52.198;9.902;2024-03-06T15:06:53;101503.88;;;8.47;100.00
17525;BME280;40431;52.198;9.902;2024-03-06T15:09:21;101506.56;;;8.48;100.00
17525;BME280;40431;52.198;9.902;2024-03-06T15:11:52;101505.50;;;8.52;100.00
17525;BME280;40431;52.198;9.902;2024-03-06T15:14:21;101510.56;;;8.62;100.00
17525;BME280;40431;52.198;9.902;2024-03-06T15:16:54;101520.19;;;8.69;100.00
17525;BME280;40431;52.198;9.902;2024-03-06T15:19:22;101511.97;;;8.72;100.00
17525;BME280;40431;52.198;9.902;2024-03-06T15:21:53;101516.34;;;8.76;100.00